createdAt,value
2018-05-27T00:00:24.712Z,4.60
2018-05-27T00:01:24.626Z,4.70
2018-05-27T00:03:17.941Z,5.10
2018-05-27T00:04:17.856Z,4.70
2018-05-27T00:06:11.137Z,4.80
2018-05-27T00:07:11.116Z,4.80
2018-05-27T00:09:04.389Z,5.20
2018-05-27T00:10:04.304Z,4.90
2018-05-27T00:11:57.590Z,4.70
2018-05-27T00:12:57.530Z,5.10
2018-05-27T00:14:50.837Z,4.90
2018-05-27T00:15:50.755Z,4.90
2018-05-27T00:17:44.031Z,4.90
2018-05-27T00:18:43.977Z,5.40
2018-05-27T00:20:37.378Z,4.80
2018-05-27T00:21:37.276Z,5.10
2018-05-27T00:23:30.598Z,5.30
2018-05-27T00:24:30.504Z,4.40
2018-05-27T00:26:23.787Z,4.60
2018-05-27T00:27:23.738Z,4.90
2018-05-27T00:29:17.033Z,4.70
2018-05-27T00:30:16.953Z,4.80
2018-05-27T00:32:10.341Z,4.70
2018-05-27T00:33:10.179Z,4.70
2018-05-27T00:35:03.486Z,5.00
2018-05-27T00:36:03.404Z,4.90
2018-05-27T00:37:56.680Z,5.00
2018-05-27T00:38:56.621Z,5.70
2018-05-27T00:40:49.923Z,5.30
2018-05-27T00:41:49.852Z,5.20
2018-05-27T00:43:43.248Z,5.00
2018-05-27T00:44:43.074Z,4.70
2018-05-27T00:46:36.355Z,5.20
2018-05-27T00:47:36.294Z,5.10
2018-05-27T00:49:29.598Z,5.00
2018-05-27T00:50:29.519Z,4.80
2018-05-27T00:52:22.802Z,5.00
2018-05-27T00:53:22.742Z,4.50
2018-05-27T00:55:16.146Z,5.00
2018-05-27T00:56:15.966Z,5.00
2018-05-27T00:58:09.338Z,5.00
2018-05-27T00:59:09.278Z,5.00
2018-05-27T01:01:02.683Z,4.70
2018-05-27T01:02:02.502Z,4.40
2018-05-27T01:03:55.907Z,5.00
2018-05-27T01:04:55.726Z,5.10
2018-05-27T01:06:49.110Z,5.00
2018-05-27T01:07:48.949Z,4.50
2018-05-27T01:09:42.354Z,4.70
2018-05-27T01:10:42.171Z,4.70
2018-05-27T01:12:35.454Z,5.10
2018-05-27T01:13:35.395Z,4.80
2018-05-27T01:15:28.699Z,5.20
2018-05-27T01:16:28.619Z,5.00
2018-05-27T01:18:21.901Z,4.60
2018-05-27T01:19:21.843Z,4.80
2018-05-27T01:21:15.146Z,4.90
2018-05-27T01:22:15.065Z,4.80
2018-05-27T01:24:08.368Z,4.90
2018-05-27T01:25:08.288Z,4.80
2018-05-27T01:27:01.570Z,5.00
2018-05-27T01:28:01.511Z,4.80
2018-05-27T01:29:54.813Z,4.80
2018-05-27T01:30:54.732Z,4.90
2018-05-27T01:32:48.015Z,5.10
2018-05-27T01:33:47.954Z,5.10
2018-05-27T01:35:41.356Z,5.10
2018-05-27T01:36:41.277Z,5.20
2018-05-27T01:38:34.557Z,5.40
2018-05-27T01:39:34.498Z,5.20
2018-05-27T01:41:27.798Z,4.70
2018-05-27T01:42:27.719Z,4.80
2018-05-27T01:44:21.021Z,4.80
2018-05-27T01:45:20.940Z,4.90
2018-05-27T01:47:14.215Z,4.70
2018-05-27T01:48:14.156Z,4.90
2018-05-27T01:50:07.447Z,4.60
2018-05-27T01:51:07.367Z,4.70
2018-05-27T01:53:00.652Z,5.10
2018-05-27T01:54:00.591Z,5.00
2018-05-27T01:55:54.000Z,5.00
2018-05-27T01:56:53.813Z,5.10
2018-05-27T01:58:47.197Z,5.20
2018-05-27T01:59:47.039Z,4.60
2018-05-27T02:01:40.341Z,4.60
2018-05-27T02:02:40.256Z,4.60
2018-05-27T02:04:33.561Z,5.00
2018-05-27T02:05:33.478Z,4.90
2018-05-27T02:07:26.751Z,5.20
2018-05-27T02:08:26.692Z,4.70
2018-05-27T02:10:20.094Z,4.90
2018-05-27T02:11:19.914Z,5.40
2018-05-27T02:13:13.297Z,5.40
2018-05-27T02:14:13.134Z,5.20
2018-05-27T02:16:06.436Z,5.00
2018-05-27T02:17:06.356Z,4.90
2018-05-27T02:18:59.640Z,4.60
2018-05-27T02:19:59.580Z,4.80
2018-05-27T02:21:52.879Z,5.10
2018-05-27T02:22:52.797Z,5.10
2018-05-27T02:24:46.201Z,4.50
2018-05-27T02:25:46.020Z,4.90
2018-05-27T02:27:39.340Z,4.80
2018-05-27T02:28:39.279Z,4.80
2018-05-27T02:30:32.578Z,5.10
2018-05-27T02:31:32.504Z,5.00
2018-05-27T02:33:25.782Z,5.20
2018-05-27T02:34:25.721Z,4.70
2018-05-27T02:36:19.027Z,5.30
2018-05-27T02:37:18.940Z,4.70
2018-05-27T02:39:12.226Z,4.80
2018-05-27T02:40:12.166Z,5.30
2018-05-27T02:42:05.470Z,5.10
2018-05-27T02:43:05.389Z,5.00
2018-05-27T02:44:58.686Z,4.70
2018-05-27T02:45:58.609Z,4.80
2018-05-27T02:47:51.882Z,5.20
2018-05-27T02:48:51.828Z,4.60
2018-05-27T02:50:45.225Z,4.50
2018-05-27T02:51:45.043Z,5.10
2018-05-27T02:53:38.323Z,5.10
2018-05-27T02:54:38.263Z,4.70
2018-05-27T02:56:31.566Z,4.90
2018-05-27T02:57:31.483Z,4.80
2018-05-27T02:59:24.764Z,4.70
2018-05-27T03:00:24.705Z,4.70
2018-05-27T03:02:18.106Z,5.40
2018-05-27T03:03:17.926Z,5.20
2018-05-27T03:05:11.835Z,5.10
2018-05-27T03:06:11.147Z,4.90
2018-05-27T03:08:04.425Z,5.30
2018-05-27T03:09:04.360Z,5.10
2018-05-27T03:10:57.658Z,5.10
2018-05-27T03:11:57.579Z,4.90
2018-05-27T03:13:50.860Z,4.80
2018-05-27T03:14:50.799Z,5.00
2018-05-27T03:16:44.204Z,5.20
2018-05-27T03:17:44.019Z,5.10
2018-05-27T03:19:37.336Z,5.50
2018-05-27T03:20:37.276Z,5.20
2018-05-27T03:22:30.576Z,5.60
2018-05-27T03:23:30.496Z,5.40
2018-05-27T03:25:23.900Z,5.50
2018-05-27T03:26:23.719Z,5.60
2018-05-27T03:28:16.988Z,5.70
2018-05-27T03:29:16.929Z,5.90
2018-05-27T03:31:10.228Z,4.90
2018-05-27T03:32:10.147Z,5.40
2018-05-27T03:34:03.431Z,5.00
2018-05-27T03:35:03.369Z,5.20
2018-05-27T03:36:56.668Z,5.00
2018-05-27T03:37:56.588Z,5.40
2018-05-27T03:39:49.869Z,4.70
2018-05-27T03:40:49.810Z,5.00
2018-05-27T03:42:43.108Z,5.40
2018-05-27T03:43:43.027Z,5.80
2018-05-27T03:45:36.326Z,5.30
2018-05-27T03:46:36.246Z,5.50
2018-05-27T03:48:29.528Z,5.40
2018-05-27T03:49:29.466Z,5.00
2018-05-27T03:51:22.767Z,5.50
2018-05-27T03:52:22.689Z,5.30
2018-05-27T03:54:15.967Z,5.70
2018-05-27T03:55:15.905Z,5.70
2018-05-27T03:57:09.207Z,5.30
2018-05-27T03:58:09.126Z,5.50
2018-05-27T04:00:02.408Z,5.60
2018-05-27T04:01:02.347Z,5.70
2018-05-27T04:02:55.645Z,5.50
2018-05-27T04:03:55.566Z,5.40
2018-05-27T04:05:48.870Z,5.90
2018-05-27T04:06:48.794Z,5.90
2018-05-27T04:08:42.166Z,5.60
2018-05-27T04:09:42.001Z,5.20
2018-05-27T04:11:35.406Z,5.40
2018-05-27T04:12:35.283Z,5.80
2018-05-27T04:14:28.658Z,5.80
2018-05-27T04:15:28.494Z,5.20
2018-05-27T04:17:21.785Z,5.60
2018-05-27T04:18:21.704Z,6.00
2018-05-27T04:20:14.981Z,6.50
2018-05-27T04:21:14.922Z,5.70
2018-05-27T04:23:08.221Z,6.20
2018-05-27T04:24:08.145Z,5.20
2018-05-27T04:26:01.544Z,5.30
2018-05-27T04:27:01.361Z,5.10
2018-05-27T04:28:54.743Z,5.50
2018-05-27T04:29:54.578Z,5.30
2018-05-27T04:31:47.980Z,5.40
2018-05-27T04:32:47.796Z,5.50
2018-05-27T04:34:41.076Z,5.30
2018-05-27T04:35:41.015Z,5.30
2018-05-27T04:37:34.417Z,5.50
2018-05-27T04:38:34.225Z,5.40
2018-05-27T04:40:27.504Z,6.00
2018-05-27T04:41:27.444Z,5.60
2018-05-27T04:43:20.742Z,5.90
2018-05-27T04:44:20.663Z,5.60
2018-05-27T04:46:13.965Z,5.20
2018-05-27T04:47:13.880Z,5.10
2018-05-27T04:49:07.161Z,5.40
2018-05-27T04:50:07.100Z,5.70
2018-05-27T04:52:00.400Z,5.20
2018-05-27T04:53:00.321Z,5.60
2018-05-27T04:54:53.603Z,5.40
2018-05-27T04:55:53.542Z,5.80
2018-05-27T04:57:46.944Z,5.10
2018-05-27T04:58:46.753Z,5.40
2018-05-27T05:00:40.037Z,5.60
2018-05-27T05:01:39.977Z,5.30
2018-05-27T05:03:33.383Z,5.50
2018-05-27T05:04:33.273Z,5.50
2018-05-27T05:06:26.577Z,6.00
2018-05-27T05:07:26.497Z,5.60
2018-05-27T05:09:19.884Z,5.90
2018-05-27T05:10:19.720Z,5.70
2018-05-27T05:12:13.628Z,5.50
2018-05-27T05:13:12.942Z,5.70
2018-05-27T05:15:06.325Z,5.60
2018-05-27T05:16:06.165Z,5.40
2018-05-27T05:17:59.566Z,5.00
2018-05-27T05:18:59.377Z,4.80
2018-05-27T05:20:52.762Z,5.10
2018-05-27T05:21:52.598Z,5.10
2018-05-27T05:23:45.901Z,5.60
2018-05-27T05:24:45.821Z,5.90
2018-05-27T05:26:39.122Z,4.90
2018-05-27T05:27:39.062Z,5.40
2018-05-27T05:29:32.429Z,5.30
2018-05-27T05:30:32.265Z,5.50
2018-05-27T05:32:25.568Z,5.40
2018-05-27T05:33:25.487Z,5.70
2018-05-27T05:35:18.876Z,5.20
2018-05-27T05:36:18.730Z,5.10
2018-05-27T05:38:12.008Z,5.00
2018-05-27T05:39:11.926Z,5.30
2018-05-27T05:41:05.208Z,5.60
2018-05-27T05:42:05.149Z,5.40
2018-05-27T05:43:58.555Z,5.40
2018-05-27T05:44:58.373Z,5.40
2018-05-27T05:46:51.675Z,5.80
2018-05-27T05:47:51.599Z,5.70
2018-05-27T05:49:44.982Z,6.30
2018-05-27T05:50:44.824Z,5.80
2018-05-27T05:52:38.123Z,5.70
2018-05-27T05:53:38.044Z,5.70
2018-05-27T05:55:31.337Z,6.00
2018-05-27T05:56:31.276Z,5.70
2018-05-27T05:58:24.580Z,5.60
2018-05-27T05:59:24.505Z,5.70
2018-05-27T06:01:17.786Z,5.60
2018-05-27T06:02:17.729Z,5.70
2018-05-27T06:04:11.133Z,6.00
2018-05-27T06:05:10.950Z,5.60
2018-05-27T06:07:04.253Z,5.90
2018-05-27T06:08:04.175Z,5.80
2018-05-27T06:09:57.459Z,6.10
2018-05-27T06:10:57.401Z,6.50
2018-05-27T06:12:50.709Z,5.70
2018-05-27T06:13:50.629Z,5.60
2018-05-27T06:15:44.517Z,5.90
2018-05-27T06:16:43.856Z,5.70
2018-05-27T06:18:37.159Z,5.60
2018-05-27T06:19:37.095Z,5.40
2018-05-27T06:21:30.366Z,5.80
2018-05-27T06:22:30.309Z,5.80
2018-05-27T06:24:23.616Z,5.90
2018-05-27T06:25:23.537Z,5.60
2018-05-27T06:27:16.832Z,5.70
2018-05-27T06:28:16.762Z,5.90
2018-05-27T06:30:10.147Z,6.00
2018-05-27T06:31:09.990Z,5.60
2018-05-27T06:33:03.357Z,6.00
2018-05-27T06:34:03.283Z,5.80
2018-05-27T06:35:56.572Z,6.00
2018-05-27T06:36:56.518Z,5.50
2018-05-27T06:38:49.891Z,5.40
2018-05-27T06:39:49.759Z,5.50
2018-05-27T06:41:43.053Z,6.00
2018-05-27T06:42:43.001Z,6.10
2018-05-27T06:44:36.310Z,5.50
2018-05-27T06:45:36.238Z,5.60
2018-05-27T06:47:29.544Z,5.70
2018-05-27T06:48:29.472Z,5.30
2018-05-27T06:50:22.769Z,6.20
2018-05-27T06:51:22.714Z,5.90
2018-05-27T06:53:16.033Z,5.10
2018-05-27T06:54:15.957Z,5.50
2018-05-27T06:56:09.253Z,5.60
2018-05-27T06:57:09.201Z,5.70
2018-05-27T06:59:02.515Z,5.50
2018-05-27T07:00:02.444Z,5.30
2018-05-27T07:01:57.837Z,5.50
2018-05-27T07:02:57.678Z,5.70
2018-05-27T07:04:51.048Z,5.50
2018-05-27T07:05:50.922Z,5.30
2018-05-27T07:07:44.229Z,5.10
2018-05-27T07:08:44.158Z,5.70
2018-05-27T07:10:37.459Z,5.90
2018-05-27T07:11:37.463Z,5.60
2018-05-27T07:13:30.723Z,5.60
2018-05-27T07:14:30.648Z,5.30
2018-05-27T07:16:23.943Z,5.60
2018-05-27T07:17:23.892Z,5.80
2018-05-27T07:19:17.206Z,5.50
2018-05-27T07:20:17.136Z,5.10
2018-05-27T07:22:10.434Z,6.40
2018-05-27T07:23:10.386Z,6.50
2018-05-27T07:25:03.688Z,5.70
2018-05-27T07:26:03.617Z,5.70
2018-05-27T07:27:56.927Z,5.70
2018-05-27T07:28:56.857Z,5.60
2018-05-27T07:30:50.248Z,5.80
2018-05-27T07:31:50.090Z,5.50
2018-05-27T07:33:43.416Z,5.30
2018-05-27T07:34:43.345Z,5.50
2018-05-27T07:36:36.640Z,5.50
2018-05-27T07:37:36.580Z,5.40
2018-05-27T07:39:29.890Z,5.10
2018-05-27T07:40:29.814Z,5.90
2018-05-27T07:42:23.102Z,5.90
2018-05-27T07:43:23.043Z,5.60
2018-05-27T07:45:16.468Z,6.00
2018-05-27T07:46:16.285Z,6.10
2018-05-27T07:48:09.700Z,6.20
2018-05-27T07:49:09.521Z,5.50
2018-05-27T07:51:02.806Z,6.20
2018-05-27T07:52:02.757Z,6.20
2018-05-27T07:53:56.072Z,6.00
2018-05-27T07:54:55.994Z,5.70
2018-05-27T07:56:49.340Z,5.60
2018-05-27T07:57:49.290Z,5.80
2018-05-27T07:59:42.600Z,5.90
2018-05-27T08:00:42.531Z,6.00
2018-05-27T08:02:35.812Z,5.80
2018-05-27T08:03:35.760Z,6.00
2018-05-27T08:05:29.067Z,5.40
2018-05-27T08:06:28.995Z,6.20
2018-05-27T08:08:22.302Z,6.30
2018-05-27T08:09:22.231Z,6.00
2018-05-27T08:11:15.518Z,6.40
2018-05-27T08:12:15.465Z,6.10
2018-05-27T08:14:08.773Z,6.80
2018-05-27T08:15:08.700Z,6.10
2018-05-27T08:17:01.997Z,5.80
2018-05-27T08:18:01.942Z,6.40
2018-05-27T08:19:55.305Z,6.20
2018-05-27T08:20:55.179Z,5.80
2018-05-27T08:22:49.073Z,6.00
2018-05-27T08:23:48.415Z,6.00
2018-05-27T08:25:41.719Z,6.30
2018-05-27T08:26:41.647Z,6.40
2018-05-27T08:28:34.953Z,5.80
2018-05-27T08:29:34.882Z,6.00
2018-05-27T08:31:28.167Z,5.70
2018-05-27T08:32:28.120Z,6.00
2018-05-27T08:34:21.426Z,5.90
2018-05-27T08:35:21.353Z,5.50
2018-05-27T08:37:14.641Z,5.80
2018-05-27T08:38:14.590Z,5.20
2018-05-27T08:40:07.903Z,5.80
2018-05-27T08:41:07.825Z,5.30
2018-05-27T08:43:01.115Z,5.40
2018-05-27T08:44:01.062Z,5.40
2018-05-27T08:45:54.475Z,5.60
2018-05-27T08:46:54.296Z,5.40
2018-05-27T08:48:47.604Z,5.40
2018-05-27T08:49:47.539Z,5.50
2018-05-27T08:51:40.820Z,5.60
2018-05-27T08:52:40.768Z,5.80
2018-05-27T08:54:34.073Z,5.70
2018-05-27T08:55:34.003Z,5.30
2018-05-27T08:57:27.341Z,5.50
2018-05-27T08:58:27.288Z,5.60
2018-05-27T09:00:20.710Z,5.90
2018-05-27T09:01:20.593Z,5.80
2018-05-27T09:03:13.919Z,5.80
2018-05-27T09:04:13.762Z,5.50
2018-05-27T09:06:07.069Z,5.60
2018-05-27T09:07:06.997Z,5.70
2018-05-27T09:09:00.422Z,5.90
2018-05-27T09:10:00.236Z,5.60
2018-05-27T09:11:53.635Z,5.50
2018-05-27T09:12:53.479Z,5.80
2018-05-27T09:14:46.892Z,5.50
2018-05-27T09:15:46.725Z,5.60
2018-05-27T09:17:40.016Z,5.20
2018-05-27T09:18:39.967Z,5.20
2018-05-27T09:20:33.371Z,5.60
2018-05-27T09:21:33.293Z,5.60
2018-05-27T09:23:26.605Z,5.50
2018-05-27T09:24:26.541Z,5.60
2018-05-27T09:26:19.859Z,5.80
2018-05-27T09:27:19.791Z,5.70
2018-05-27T09:29:13.110Z,5.20
2018-05-27T09:30:13.040Z,5.20
2018-05-27T09:32:06.354Z,5.40
2018-05-27T09:33:06.289Z,5.70
2018-05-27T09:34:59.705Z,5.90
2018-05-27T09:35:59.543Z,6.00
2018-05-27T09:37:52.840Z,5.70
2018-05-27T09:38:52.787Z,5.20
2018-05-27T09:40:46.106Z,5.40
2018-05-27T09:41:46.036Z,5.60
2018-05-27T09:43:39.343Z,5.70
2018-05-27T09:44:39.291Z,5.70
2018-05-27T09:46:32.612Z,5.30
2018-05-27T09:47:32.542Z,5.40
2018-05-27T09:49:25.862Z,5.20
2018-05-27T09:50:25.793Z,5.20
2018-05-27T09:52:19.095Z,5.20
2018-05-27T09:53:19.045Z,5.20
2018-05-27T09:55:12.411Z,5.10
2018-05-27T09:56:12.295Z,5.50
2018-05-27T09:58:05.663Z,5.70
2018-05-27T09:59:05.535Z,5.40
2018-05-27T10:00:58.854Z,5.60
2018-05-27T10:01:58.784Z,5.50
2018-05-27T10:03:52.087Z,5.30
2018-05-27T10:04:52.055Z,5.30
2018-05-27T10:06:45.366Z,5.70
2018-05-27T10:07:45.297Z,5.70
2018-05-27T10:09:38.607Z,4.90
2018-05-27T10:10:38.547Z,5.20
2018-05-27T10:12:31.833Z,5.00
2018-05-27T10:13:31.786Z,5.30
2018-05-27T10:15:25.105Z,5.40
2018-05-27T10:16:25.037Z,5.20
2018-05-27T10:18:18.326Z,5.50
2018-05-27T10:19:18.277Z,5.50
2018-05-27T10:21:11.591Z,5.30
2018-05-27T10:22:11.527Z,5.50
2018-05-27T10:24:04.822Z,5.20
2018-05-27T10:25:04.773Z,5.10
2018-05-27T10:26:58.085Z,5.60
2018-05-27T10:27:58.024Z,5.50
2018-05-27T10:29:51.363Z,5.70
2018-05-27T10:30:51.289Z,5.80
2018-05-27T10:32:44.627Z,5.80
2018-05-27T10:33:44.535Z,5.50
2018-05-27T10:35:37.860Z,5.70
2018-05-27T10:36:37.788Z,6.30
2018-05-27T10:38:31.091Z,5.80
2018-05-27T10:39:31.040Z,5.90
2018-05-27T10:41:24.363Z,5.90
2018-05-27T10:42:24.293Z,5.90
2018-05-27T10:44:17.603Z,5.80
2018-05-27T10:45:17.549Z,5.70
2018-05-27T10:47:10.877Z,6.30
2018-05-27T10:48:10.808Z,5.80
2018-05-27T10:50:04.133Z,5.70
2018-05-27T10:51:04.064Z,5.40
2018-05-27T10:52:57.366Z,5.50
2018-05-27T10:53:57.316Z,5.50
2018-05-27T10:55:50.734Z,5.40
2018-05-27T10:56:50.569Z,5.80
2018-05-27T10:58:43.870Z,5.80
2018-05-27T10:59:43.819Z,5.50
2018-05-27T11:01:37.173Z,5.60
2018-05-27T11:02:37.070Z,5.40
2018-05-27T11:04:30.373Z,5.30
2018-05-27T11:05:30.957Z,5.10
2018-05-27T11:07:23.645Z,5.50
2018-05-27T11:08:23.574Z,5.30
2018-05-27T11:10:16.900Z,5.40
2018-05-27T11:11:16.828Z,5.30
2018-05-27T11:13:10.129Z,5.40
2018-05-27T11:14:10.080Z,5.20
2018-05-27T11:16:03.404Z,6.00
2018-05-27T11:17:03.336Z,5.60
2018-05-27T11:18:56.734Z,5.90
2018-05-27T11:19:56.588Z,6.00
2018-05-27T11:21:50.006Z,6.20
2018-05-27T11:22:49.840Z,5.80
2018-05-27T11:24:44.141Z,5.70
2018-05-27T11:25:44.090Z,5.60
2018-05-27T11:27:37.403Z,6.30
2018-05-27T11:28:37.334Z,6.00
2018-05-27T11:30:30.653Z,6.10
2018-05-27T11:31:30.585Z,6.00
2018-05-27T11:33:23.981Z,5.50
2018-05-27T11:34:23.832Z,5.40
2018-05-27T11:36:17.155Z,6.20
2018-05-27T11:37:17.088Z,6.00
2018-05-27T11:39:10.482Z,6.40
2018-05-27T11:40:10.335Z,5.90
2018-05-27T11:42:03.751Z,5.70
2018-05-27T11:43:03.589Z,5.90
2018-05-27T11:44:56.991Z,5.70
2018-05-27T11:45:56.834Z,6.30
2018-05-27T11:47:50.155Z,6.30
2018-05-27T11:48:50.086Z,6.00
2018-05-27T11:50:43.406Z,6.30
2018-05-27T11:51:43.337Z,6.40
2018-05-27T11:53:36.639Z,6.20
2018-05-27T11:54:36.590Z,6.30
2018-05-27T11:56:29.904Z,6.10
2018-05-27T11:57:29.834Z,6.10
2018-05-27T11:59:23.231Z,6.20
2018-05-27T12:00:23.081Z,5.90
2018-05-27T12:02:16.396Z,6.00
2018-05-27T12:03:16.327Z,6.30
2018-05-27T12:05:09.722Z,5.80
2018-05-27T12:06:09.576Z,5.70
2018-05-27T12:08:02.883Z,5.90
2018-05-27T12:09:02.865Z,6.20
2018-05-27T12:10:56.231Z,6.00
2018-05-27T12:11:56.060Z,6.70
2018-05-27T12:13:49.363Z,6.00
2018-05-27T12:14:49.308Z,5.90
2018-05-27T12:16:42.627Z,5.90
2018-05-27T12:17:42.554Z,6.30
2018-05-27T12:19:35.852Z,6.00
2018-05-27T12:20:35.800Z,6.20
2018-05-27T12:22:29.117Z,5.90
2018-05-27T12:23:29.047Z,6.50
2018-05-27T12:25:22.342Z,6.00
2018-05-27T12:26:22.292Z,6.10
2018-05-27T12:28:15.708Z,5.70
2018-05-27T12:29:15.540Z,5.80
2018-05-27T12:31:08.857Z,6.10
2018-05-27T12:32:08.785Z,6.20
2018-05-27T12:34:02.085Z,5.80
2018-05-27T12:35:02.034Z,6.40
2018-05-27T12:36:55.378Z,6.20
2018-05-27T12:37:55.293Z,5.90
2018-05-27T12:39:48.580Z,6.00
2018-05-27T12:40:48.525Z,5.80
2018-05-27T12:42:41.904Z,5.80
2018-05-27T12:43:41.770Z,6.10
2018-05-27T12:45:35.093Z,5.80
2018-05-27T12:46:35.016Z,6.50
2018-05-27T12:48:28.332Z,6.00
2018-05-27T12:49:28.261Z,6.20
2018-05-27T12:51:21.577Z,5.80
2018-05-27T12:52:21.507Z,6.20
2018-05-27T12:54:14.808Z,6.20
2018-05-27T12:55:14.753Z,5.70
2018-05-27T12:57:08.071Z,6.30
2018-05-27T12:58:07.999Z,6.10
2018-05-27T13:00:01.339Z,6.00
2018-05-27T13:01:01.293Z,5.70
2018-05-27T13:02:54.703Z,6.10
2018-05-27T13:03:54.535Z,6.50
2018-05-27T13:05:47.948Z,5.80
2018-05-27T13:06:47.782Z,6.00
2018-05-27T13:08:41.701Z,6.50
2018-05-27T13:09:41.019Z,6.30
2018-05-27T13:11:34.337Z,6.00
2018-05-27T13:12:34.266Z,5.90
2018-05-27T13:14:27.556Z,5.90
2018-05-27T13:15:27.503Z,5.90
2018-05-27T13:17:20.804Z,5.50
2018-05-27T13:18:20.733Z,5.30
2018-05-27T13:20:14.130Z,5.50
2018-05-27T13:21:13.973Z,5.50
2018-05-27T13:23:07.392Z,5.60
2018-05-27T13:24:07.289Z,6.00
2018-05-27T13:26:00.609Z,5.20
2018-05-27T13:27:00.530Z,5.30
2018-05-27T13:28:53.817Z,5.30
2018-05-27T13:29:53.764Z,5.00
2018-05-27T13:31:47.072Z,5.40
2018-05-27T13:32:47.002Z,6.00
2018-05-27T13:34:40.291Z,5.70
2018-05-27T13:35:40.239Z,5.20
2018-05-27T13:37:33.547Z,5.10
2018-05-27T13:38:33.477Z,4.90
2018-05-27T13:40:27.372Z,5.20
2018-05-27T13:41:26.713Z,5.40
2018-05-27T13:43:20.126Z,5.50
2018-05-27T13:44:19.950Z,5.30
2018-05-27T13:46:13.272Z,5.30
2018-05-27T13:47:13.203Z,5.50
2018-05-27T13:49:06.473Z,5.60
2018-05-27T13:50:06.428Z,5.40
2018-05-27T13:51:59.728Z,5.40
2018-05-27T13:52:59.656Z,5.70
2018-05-27T13:54:52.944Z,6.00
2018-05-27T13:55:52.891Z,5.80
2018-05-27T13:57:46.198Z,5.40
2018-05-27T13:58:46.128Z,5.30
2018-05-27T14:00:39.415Z,5.40
2018-05-27T14:01:39.360Z,5.20
2018-05-27T14:03:32.779Z,5.20
2018-05-27T14:04:32.600Z,5.30
2018-05-27T14:06:25.917Z,5.30
2018-05-27T14:07:25.839Z,5.40
2018-05-27T14:09:19.122Z,5.30
2018-05-27T14:10:19.123Z,5.30
2018-05-27T14:12:12.379Z,5.00
2018-05-27T14:13:12.308Z,5.20
2018-05-27T14:15:05.700Z,5.20
2018-05-27T14:16:05.549Z,5.50
2018-05-27T14:17:58.848Z,5.00
2018-05-27T14:18:58.778Z,5.40
2018-05-27T14:20:52.172Z,5.40
2018-05-27T14:21:52.014Z,5.30
2018-05-27T14:23:45.365Z,5.20
2018-05-27T14:24:45.284Z,5.60
2018-05-27T14:26:38.597Z,5.00
2018-05-27T14:27:38.520Z,4.90
2018-05-27T14:29:31.915Z,5.20
2018-05-27T14:30:31.755Z,5.70
2018-05-27T14:32:25.060Z,5.60
2018-05-27T14:33:24.988Z,5.80
2018-05-27T14:35:18.274Z,6.20
2018-05-27T14:36:18.223Z,5.30
2018-05-27T14:38:11.538Z,5.50
2018-05-27T14:39:11.458Z,5.50
2018-05-27T14:41:04.854Z,5.60
2018-05-27T14:42:04.692Z,5.30
2018-05-27T14:43:57.996Z,5.40
2018-05-27T14:44:57.924Z,5.20
2018-05-27T14:46:51.230Z,5.30
2018-05-27T14:47:51.160Z,6.90
2018-05-27T14:49:44.554Z,5.80
2018-05-27T14:50:44.393Z,5.40
2018-05-27T14:52:37.716Z,5.20
2018-05-27T14:53:37.633Z,5.90
2018-05-27T14:55:31.766Z,5.30
2018-05-27T14:56:31.713Z,5.30
2018-05-27T14:58:25.017Z,4.90
2018-05-27T14:59:24.946Z,5.50
2018-05-27T15:01:18.234Z,5.20
2018-05-27T15:02:18.185Z,5.20
2018-05-27T15:04:11.543Z,5.50
2018-05-27T15:05:11.415Z,5.30
2018-05-27T15:07:04.724Z,5.10
2018-05-27T15:08:04.654Z,5.00
2018-05-27T15:09:57.950Z,5.30
2018-05-27T15:10:57.897Z,4.80
2018-05-27T15:12:51.309Z,4.90
2018-05-27T15:13:51.138Z,5.50
2018-05-27T15:15:44.420Z,5.90
2018-05-27T15:16:44.367Z,6.20
2018-05-27T15:18:37.772Z,5.60
2018-05-27T15:19:37.600Z,5.50
2018-05-27T15:21:30.887Z,5.50
2018-05-27T15:22:30.834Z,5.80
2018-05-27T15:24:24.147Z,6.10
2018-05-27T15:25:24.098Z,6.00
2018-05-27T15:27:17.489Z,5.50
2018-05-27T15:28:17.321Z,5.80
2018-05-27T15:30:10.610Z,6.40
2018-05-27T15:31:10.555Z,6.30
2018-05-27T15:33:03.859Z,5.50
2018-05-27T15:34:03.786Z,6.50
2018-05-27T15:35:57.072Z,6.60
2018-05-27T15:36:57.015Z,6.50
2018-05-27T15:38:50.317Z,6.40
2018-05-27T15:39:50.246Z,6.40
2018-05-27T15:41:43.527Z,7.00
2018-05-27T15:42:43.472Z,6.80
2018-05-27T15:44:36.883Z,6.70
2018-05-27T15:45:36.700Z,6.50
2018-05-27T15:47:30.002Z,6.50
2018-05-27T15:48:29.930Z,6.70
2018-05-27T15:50:23.340Z,6.30
2018-05-27T15:51:23.288Z,6.80
2018-05-27T15:53:16.597Z,6.10
2018-05-27T15:54:16.522Z,6.30
2018-05-27T15:56:09.813Z,6.70
2018-05-27T15:57:09.764Z,6.50
2018-05-27T15:59:03.077Z,6.20
2018-05-27T16:00:03.000Z,6.00
2018-05-27T16:01:56.288Z,6.30
2018-05-27T16:02:56.232Z,6.30
2018-05-27T16:04:49.549Z,6.20
2018-05-27T16:05:49.471Z,7.00
2018-05-27T16:07:42.772Z,6.40
2018-05-27T16:08:42.697Z,6.60
2018-05-27T16:10:35.979Z,7.20
2018-05-27T16:11:35.924Z,6.70
2018-05-27T16:13:29.224Z,6.70
2018-05-27T16:14:29.151Z,6.70
2018-05-27T16:16:22.434Z,7.10
2018-05-27T16:17:22.376Z,6.70
2018-05-27T16:19:15.786Z,6.50
2018-05-27T16:20:15.605Z,6.20
2018-05-27T16:22:08.884Z,6.90
2018-05-27T16:23:08.830Z,7.00
2018-05-27T16:25:02.238Z,6.30
2018-05-27T16:26:02.055Z,6.90
2018-05-27T16:27:55.357Z,6.90
2018-05-27T16:28:55.284Z,7.10
2018-05-27T16:30:48.673Z,7.90
2018-05-27T16:31:48.510Z,7.30
2018-05-27T16:33:41.811Z,7.50
2018-05-27T16:34:41.737Z,6.80
2018-05-27T16:36:35.026Z,6.50
2018-05-27T16:37:34.973Z,6.70
2018-05-27T16:39:28.272Z,7.00
2018-05-27T16:40:28.197Z,6.80
2018-05-27T16:42:21.595Z,6.90
2018-05-27T16:43:21.426Z,6.50
2018-05-27T16:45:14.728Z,6.80
2018-05-27T16:46:14.656Z,7.10
2018-05-27T16:48:07.965Z,6.40
2018-05-27T16:49:07.885Z,6.20
2018-05-27T16:51:01.277Z,6.10
2018-05-27T16:52:01.121Z,6.10
2018-05-27T16:53:54.430Z,6.20
2018-05-27T16:54:54.357Z,6.50
2018-05-27T16:56:47.677Z,6.30
2018-05-27T16:57:47.624Z,6.40
2018-05-27T16:59:40.936Z,6.70
2018-05-27T17:00:40.862Z,7.80
2018-05-27T17:02:34.153Z,6.90
2018-05-27T17:03:34.095Z,6.40
2018-05-27T17:05:27.406Z,6.50
2018-05-27T17:06:27.331Z,6.60
2018-05-27T17:08:20.640Z,6.80
2018-05-27T17:09:20.568Z,6.40
2018-05-27T17:11:13.854Z,7.00
2018-05-27T17:12:13.805Z,7.40
2018-05-27T17:14:07.168Z,7.00
2018-05-27T17:15:07.035Z,7.10
2018-05-27T17:17:00.329Z,7.80
2018-05-27T17:18:00.271Z,8.40
2018-05-27T17:19:53.592Z,8.50
2018-05-27T17:20:53.557Z,7.50
2018-05-27T17:22:47.797Z,6.80
2018-05-27T17:23:47.742Z,6.80
2018-05-27T17:25:41.050Z,6.80
2018-05-27T17:26:40.977Z,6.60
2018-05-27T17:28:34.297Z,6.80
2018-05-27T17:29:34.213Z,6.60
2018-05-27T17:31:27.501Z,6.50
2018-05-27T17:32:27.452Z,6.30
2018-05-27T17:34:20.855Z,6.20
2018-05-27T17:35:20.679Z,6.30
2018-05-27T17:37:13.967Z,7.00
2018-05-27T17:38:13.909Z,7.00
2018-05-27T17:40:07.224Z,7.20
2018-05-27T17:41:07.148Z,7.10
2018-05-27T17:43:00.439Z,7.10
2018-05-27T17:44:00.383Z,6.80
2018-05-27T17:45:53.795Z,6.70
2018-05-27T17:46:53.619Z,7.00
2018-05-27T17:48:46.930Z,6.50
2018-05-27T17:49:46.854Z,6.60
2018-05-27T17:51:40.145Z,6.50
2018-05-27T17:52:40.090Z,6.40
2018-05-27T17:54:33.401Z,6.90
2018-05-27T17:55:33.327Z,6.50
2018-05-27T17:57:26.623Z,6.80
2018-05-27T17:58:26.554Z,7.10
2018-05-27T18:00:19.963Z,6.80
2018-05-27T18:01:19.789Z,6.40
2018-05-27T18:03:13.089Z,6.70
2018-05-27T18:04:13.057Z,6.30
2018-05-27T18:06:06.336Z,6.70
2018-05-27T18:07:06.262Z,6.10
2018-05-27T18:08:59.571Z,6.20
2018-05-27T18:09:59.494Z,6.50
2018-05-27T18:11:52.785Z,7.00
2018-05-27T18:12:52.729Z,7.10
2018-05-27T18:14:46.140Z,6.90
2018-05-27T18:15:45.981Z,6.90
2018-05-27T18:17:39.336Z,7.10
2018-05-27T18:18:39.281Z,7.50
2018-05-27T18:20:32.597Z,7.20
2018-05-27T18:21:32.522Z,6.80
2018-05-27T18:23:25.813Z,7.00
2018-05-27T18:24:25.756Z,6.90
2018-05-27T18:26:19.064Z,7.10
2018-05-27T18:27:18.990Z,6.80
2018-05-27T18:29:12.299Z,7.10
2018-05-27T18:30:12.229Z,7.10
2018-05-27T18:32:05.514Z,6.50
2018-05-27T18:33:05.460Z,6.80
2018-05-27T18:34:58.772Z,7.10
2018-05-27T18:35:58.695Z,6.90
2018-05-27T18:37:52.976Z,7.30
2018-05-27T18:38:52.920Z,7.30
2018-05-27T18:40:46.229Z,7.60
2018-05-27T18:41:46.153Z,6.90
2018-05-27T18:43:39.444Z,7.50
2018-05-27T18:44:39.387Z,7.80
2018-05-27T18:46:32.694Z,7.60
2018-05-27T18:47:32.621Z,7.30
2018-05-27T18:49:25.931Z,8.00
2018-05-27T18:50:25.858Z,7.80
2018-05-27T18:52:19.148Z,7.50
2018-05-27T18:53:19.093Z,7.70
2018-05-27T18:55:12.404Z,8.70
2018-05-27T18:56:12.328Z,8.40
2018-05-27T18:58:05.609Z,8.20
2018-05-27T18:59:05.560Z,8.30
2018-05-27T19:00:58.898Z,9.10
2018-05-27T19:01:58.791Z,9.60
2018-05-27T19:03:53.083Z,9.40
2018-05-27T19:04:53.022Z,9.90
2018-05-27T19:06:46.331Z,9.50
2018-05-27T19:07:46.255Z,9.20
2018-05-27T19:09:39.565Z,10.40
2018-05-27T19:10:39.487Z,10.50
2018-05-27T19:12:32.777Z,10.30